createdAt,value
2018-05-09T00:00:43.807Z,5.50
2018-05-09T00:03:10.431Z,5.20
2018-05-09T00:05:37.063Z,4.87
2018-05-09T00:08:02.964Z,7.00
2018-05-09T00:10:28.871Z,6.10
2018-05-09T00:12:54.783Z,5.97
2018-05-09T00:15:20.693Z,5.43
2018-05-09T00:17:46.599Z,5.00
2018-05-09T00:20:12.516Z,4.83
2018-05-09T00:22:38.427Z,6.60
2018-05-09T00:25:05.093Z,6.50
2018-05-09T00:27:30.989Z,5.87
2018-05-09T00:29:56.876Z,5.73
2018-05-09T00:32:22.782Z,5.77
2018-05-09T00:34:48.677Z,6.20
2018-05-09T00:37:14.588Z,5.70
2018-05-09T00:39:40.475Z,6.63
2018-05-09T00:42:07.108Z,6.20
2018-05-09T00:44:33.765Z,5.83
2018-05-09T00:46:59.663Z,6.13
2018-05-09T00:49:26.307Z,7.20
2018-05-09T00:51:52.985Z,6.67
2018-05-09T00:54:27.063Z,7.53
2018-05-09T00:56:53.715Z,7.40
2018-05-09T00:59:19.607Z,7.37
2018-05-09T01:01:46.290Z,7.10
2018-05-09T01:04:12.177Z,7.27
2018-05-09T01:06:38.832Z,7.43
2018-05-09T01:09:04.737Z,6.93
2018-05-09T01:11:31.382Z,7.30
2018-05-09T01:13:58.052Z,8.03
2018-05-09T01:16:23.950Z,8.20
2018-05-09T01:18:49.857Z,7.43
2018-05-09T01:21:16.499Z,7.07
2018-05-09T01:23:43.142Z,7.57
2018-05-09T01:26:09.049Z,8.40
2018-05-09T01:28:35.679Z,9.43
2018-05-09T01:31:02.318Z,8.10
2018-05-09T01:33:28.950Z,8.87
2018-05-09T01:35:55.617Z,7.70
2018-05-09T01:38:21.528Z,7.57
2018-05-09T01:40:48.170Z,9.20
2018-05-09T01:43:14.088Z,7.70
2018-05-09T01:45:40.730Z,7.97
2018-05-09T01:48:06.625Z,7.70
2018-05-09T01:50:32.529Z,7.50
2018-05-09T01:52:58.457Z,7.63
2018-05-09T01:55:24.370Z,7.50
2018-05-09T01:57:50.262Z,7.47
2018-05-09T02:00:16.141Z,6.60
2018-05-09T02:02:42.792Z,7.20
2018-05-09T02:05:08.694Z,7.80
2018-05-09T02:07:35.374Z,6.93
2018-05-09T02:10:01.265Z,7.27
2018-05-09T02:12:27.890Z,7.67
2018-05-09T02:15:01.653Z,7.20
2018-05-09T02:17:27.551Z,7.80
2018-05-09T02:19:53.451Z,7.00
2018-05-09T02:22:19.349Z,7.10
2018-05-09T02:24:45.252Z,7.30
2018-05-09T02:27:11.183Z,6.93
2018-05-09T02:29:37.089Z,7.73
2018-05-09T02:32:02.997Z,7.43
2018-05-09T02:34:28.972Z,7.30
2018-05-09T02:36:55.604Z,7.40
2018-05-09T02:39:22.243Z,6.80
2018-05-09T02:41:48.905Z,7.13
2018-05-09T02:44:14.813Z,7.03
2018-05-09T02:46:40.693Z,7.10
2018-05-09T02:49:06.589Z,7.40
2018-05-09T02:51:32.489Z,7.10
2018-05-09T02:53:58.460Z,7.60
2018-05-09T02:56:24.389Z,7.63
2018-05-09T02:58:50.272Z,7.57
2018-05-09T03:01:16.170Z,7.53
2018-05-09T03:03:42.078Z,7.70
2018-05-09T03:06:07.999Z,7.60
2018-05-09T03:08:33.919Z,7.17
2018-05-09T03:10:59.813Z,7.63
2018-05-09T03:13:25.701Z,7.70
2018-05-09T03:15:51.608Z,6.90
2018-05-09T03:18:17.498Z,7.90
2018-05-09T03:20:43.447Z,7.60
2018-05-09T03:23:09.355Z,8.27
2018-05-09T03:25:35.256Z,8.13
2018-05-09T03:28:01.897Z,7.60
2018-05-09T03:30:27.800Z,7.60
2018-05-09T03:32:54.453Z,8.17
2018-05-09T03:35:21.085Z,8.20
2018-05-09T03:37:46.974Z,8.23
2018-05-09T03:40:12.868Z,7.97
2018-05-09T03:42:38.753Z,8.63
2018-05-09T03:45:04.889Z,7.70
2018-05-09T03:47:30.788Z,8.00
2018-05-09T03:49:57.415Z,8.00
2018-05-09T03:52:23.326Z,8.20
2018-05-09T03:54:49.268Z,7.77
2018-05-09T03:57:15.929Z,8.80
2018-05-09T03:59:41.805Z,8.50
2018-05-09T04:02:20.163Z,8.40
2018-05-09T04:08:03.160Z,7.90
2018-05-09T04:10:29.061Z,8.23
2018-05-09T04:12:54.950Z,8.10
2018-05-09T04:15:20.863Z,8.20
2018-05-09T04:17:46.753Z,8.73
2018-05-09T04:20:13.418Z,8.53
2018-05-09T04:22:39.315Z,8.40
2018-05-09T04:25:05.945Z,8.50
2018-05-09T04:27:31.841Z,8.57
2018-05-09T04:29:57.734Z,9.03
2018-05-09T04:32:23.637Z,8.17
2018-05-09T04:34:49.537Z,8.67
2018-05-09T04:37:16.190Z,8.70
2018-05-09T04:39:42.108Z,8.70
2018-05-09T04:42:08.008Z,8.60
2018-05-09T04:44:34.665Z,9.27
2018-05-09T04:47:01.296Z,8.87
2018-05-09T04:49:27.938Z,8.40
2018-05-09T04:51:54.590Z,9.20
2018-05-09T04:54:20.496Z,8.87
2018-05-09T04:56:46.429Z,9.63
2018-05-09T04:59:12.317Z,8.13
2018-05-09T05:01:38.198Z,9.50
2018-05-09T05:04:04.117Z,8.60
2018-05-09T05:06:30.003Z,9.57
2018-05-09T05:08:56.133Z,9.10
2018-05-09T05:11:22.038Z,8.93
2018-05-09T05:13:48.783Z,8.50
2018-05-09T05:16:14.694Z,8.63
2018-05-09T05:18:41.335Z,8.60
2018-05-09T05:21:07.975Z,9.33
2018-05-09T05:23:34.604Z,8.53
2018-05-09T05:26:01.252Z,9.33
2018-05-09T05:28:27.913Z,9.30
2018-05-09T05:30:53.812Z,8.93
2018-05-09T05:33:20.458Z,9.57
2018-05-09T05:35:46.359Z,8.33
2018-05-09T05:38:12.996Z,8.50
2018-05-09T05:40:39.668Z,9.40
2018-05-09T05:43:05.594Z,8.60
2018-05-09T05:45:31.514Z,9.00
2018-05-09T05:47:57.395Z,9.20
2018-05-09T05:50:24.035Z,10.53
2018-05-09T05:52:50.672Z,9.23
2018-05-09T05:55:17.353Z,9.00
2018-05-09T05:57:43.275Z,9.50
2018-05-09T06:00:09.181Z,9.27
2018-05-09T06:02:35.102Z,9.40
2018-05-09T06:05:01.023Z,8.70
2018-05-09T06:07:26.938Z,8.80
2018-05-09T06:09:52.930Z,8.60
2018-05-09T06:12:19.578Z,9.03
2018-05-09T06:14:46.234Z,9.83
2018-05-09T06:17:12.146Z,13.53
2018-05-09T06:19:38.771Z,8.77
2018-05-09T06:22:05.427Z,9.30
2018-05-09T06:24:31.320Z,9.00
2018-05-09T06:26:57.264Z,10.20
2018-05-09T06:29:23.945Z,13.70
2018-05-09T06:31:49.833Z,8.90
2018-05-09T06:34:15.752Z,9.00
2018-05-09T06:36:41.640Z,8.47
2018-05-09T06:39:07.545Z,8.00
2018-05-09T06:41:33.537Z,8.50
2018-05-09T06:43:59.347Z,9.20
2018-05-09T06:46:25.269Z,8.83
2018-05-09T06:48:51.168Z,10.13
2018-05-09T06:51:17.814Z,8.60
2018-05-09T06:53:43.730Z,8.93
2018-05-09T06:56:10.374Z,11.30
2018-05-09T06:58:36.285Z,8.90
2018-05-09T07:01:02.944Z,15.37
2018-05-09T07:03:28.847Z,8.53
2018-05-09T07:05:54.770Z,8.60
2018-05-09T07:08:20.681Z,8.03
2018-05-09T07:10:47.348Z,8.47
2018-05-09T07:13:13.245Z,8.03
2018-05-09T07:15:39.882Z,8.17
2018-05-09T07:18:05.780Z,8.23
2018-05-09T07:20:31.681Z,8.37
2018-05-09T07:22:57.605Z,8.80
2018-05-09T07:25:23.502Z,8.43
2018-05-09T07:27:49.417Z,8.10
2018-05-09T07:30:15.371Z,7.43
2018-05-09T07:32:41.271Z,8.30
2018-05-09T07:35:07.178Z,8.70
2018-05-09T07:37:33.086Z,8.33
2018-05-09T07:39:58.972Z,7.27
2018-05-09T07:42:25.600Z,7.37
2018-05-09T07:44:51.528Z,8.80
2018-05-09T07:47:18.192Z,8.43
2018-05-09T07:49:44.120Z,8.60
2018-05-09T07:52:10.033Z,10.67
2018-05-09T07:54:35.936Z,8.27
2018-05-09T07:57:02.685Z,8.37
2018-05-09T07:59:29.329Z,7.70
2018-05-09T08:01:55.216Z,6.70
2018-05-09T08:04:21.125Z,7.90
2018-05-09T08:06:47.049Z,7.97
2018-05-09T08:09:12.977Z,8.37
2018-05-09T08:11:39.623Z,8.20
2018-05-09T08:14:05.548Z,7.37
2018-05-09T08:16:32.195Z,7.80
2018-05-09T08:18:58.841Z,7.60
2018-05-09T08:21:24.745Z,7.47
2018-05-09T08:23:51.395Z,7.33
2018-05-09T08:26:18.057Z,7.40
2018-05-09T08:28:43.953Z,7.80
2018-05-09T08:31:09.857Z,6.80
2018-05-09T08:33:35.782Z,7.27
2018-05-09T08:36:02.442Z,7.70
2018-05-09T08:38:28.357Z,7.60
2018-05-09T08:40:55.010Z,7.03
2018-05-09T08:43:21.016Z,6.13
2018-05-09T08:45:46.844Z,6.50
2018-05-09T08:48:12.757Z,6.73
2018-05-09T08:50:38.668Z,7.90
2018-05-09T08:53:05.325Z,7.30
2018-05-09T08:55:31.256Z,7.43
2018-05-09T08:57:57.145Z,6.60
2018-05-09T09:00:23.803Z,6.57
2018-05-09T09:02:49.723Z,6.33
2018-05-09T09:05:15.638Z,7.33
2018-05-09T09:07:42.307Z,6.57
2018-05-09T09:10:08.223Z,7.03
2018-05-09T09:12:34.152Z,6.47
2018-05-09T09:15:00.053Z,5.63
2018-05-09T09:17:25.981Z,5.80
2018-05-09T09:19:51.890Z,5.10
2018-05-09T09:22:17.793Z,5.90
2018-05-09T09:24:44.437Z,6.73
2018-05-09T09:27:11.079Z,5.53
2018-05-09T09:29:37.028Z,5.30
2018-05-09T09:32:02.927Z,7.20
2018-05-09T09:34:28.853Z,5.70
2018-05-09T09:36:56.543Z,5.43
2018-05-09T09:39:24.243Z,4.20
2018-05-09T09:41:51.968Z,5.33
2018-05-09T09:44:19.659Z,4.30
2018-05-09T09:46:54.470Z,4.90
2018-05-09T09:49:22.116Z,4.27
2018-05-09T09:51:49.811Z,4.20
2018-05-09T09:54:18.100Z,4.30
2018-05-09T09:56:45.843Z,5.03
2018-05-09T09:59:13.547Z,4.00
2018-05-09T10:01:41.259Z,4.47
2018-05-09T10:04:08.947Z,4.10
2018-05-09T10:06:36.643Z,3.97
2018-05-09T10:09:04.372Z,3.90
2018-05-09T10:11:30.290Z,3.93
2018-05-09T10:13:56.210Z,4.03
2018-05-09T10:16:24.046Z,4.67
2018-05-09T10:18:51.655Z,3.80
2018-05-09T10:21:19.388Z,4.60
2018-05-09T10:23:47.092Z,3.73
2018-05-09T10:26:14.818Z,3.97
2018-05-09T10:28:42.536Z,3.43
2018-05-09T10:31:10.235Z,4.00
2018-05-09T10:33:37.957Z,3.80
2018-05-09T10:36:05.702Z,4.50
2018-05-09T10:38:33.406Z,4.63
2018-05-09T10:41:01.112Z,4.10
2018-05-09T10:43:28.858Z,4.10
2018-05-09T10:45:56.579Z,4.27
2018-05-09T10:48:24.281Z,3.57
2018-05-09T10:50:52.076Z,4.30
2018-05-09T10:53:19.695Z,3.70
2018-05-09T10:55:47.388Z,4.07
2018-05-09T10:58:15.120Z,4.90
2018-05-09T11:00:42.816Z,3.90
2018-05-09T11:03:10.510Z,3.80
2018-05-09T11:05:38.211Z,3.80
2018-05-09T11:08:05.934Z,4.07
2018-05-09T11:10:33.786Z,3.73
2018-05-09T11:13:01.360Z,4.20
2018-05-09T11:15:29.053Z,3.90
2018-05-09T11:17:56.759Z,4.60
2018-05-09T11:20:23.404Z,3.70
2018-05-09T11:22:50.060Z,4.03
2018-05-09T11:25:17.756Z,4.23
2018-05-09T11:27:45.444Z,3.80
2018-05-09T11:30:11.380Z,4.03
2018-05-09T11:32:38.008Z,4.47
2018-05-09T11:35:03.923Z,4.20
2018-05-09T11:37:29.919Z,5.10
2018-05-09T11:39:56.501Z,5.17
2018-05-09T11:42:23.239Z,5.83
2018-05-09T11:44:49.913Z,5.30
2018-05-09T11:47:15.845Z,5.30
2018-05-09T11:49:41.794Z,5.50
2018-05-09T11:52:07.714Z,5.90
2018-05-09T11:54:33.647Z,6.00
2018-05-09T11:56:59.550Z,6.10
2018-05-09T11:59:26.085Z,6.10
2018-05-09T12:01:51.999Z,6.10
2018-05-09T12:04:17.896Z,6.90
2018-05-09T12:06:43.792Z,6.00
2018-05-09T12:09:09.710Z,6.70
2018-05-09T12:11:36.357Z,7.60
2018-05-09T12:14:02.264Z,6.50
2018-05-09T12:16:28.886Z,5.87
2018-05-09T12:18:55.538Z,5.83
2018-05-09T12:21:22.481Z,6.20
2018-05-09T12:23:48.386Z,6.00
2018-05-09T12:26:14.282Z,6.07
2018-05-09T12:28:40.163Z,6.70
2018-05-09T12:31:06.068Z,6.63
2018-05-09T12:33:32.691Z,6.40
2018-05-09T12:35:59.352Z,6.20
2018-05-09T12:38:25.242Z,6.57
2018-05-09T12:40:51.151Z,6.00
2018-05-09T12:43:17.055Z,6.40
2018-05-09T12:45:42.951Z,5.70
2018-05-09T12:48:08.875Z,6.20
2018-05-09T12:50:34.788Z,6.03
2018-05-09T12:53:00.723Z,5.67
2018-05-09T12:55:26.657Z,5.80
2018-05-09T12:57:52.544Z,5.37
2018-05-09T13:00:18.463Z,6.13
2018-05-09T13:02:44.349Z,5.70
2018-05-09T13:05:12.057Z,5.17
2018-05-09T13:07:39.768Z,4.53
2018-05-09T13:10:07.461Z,4.83
2018-05-09T13:12:35.201Z,5.23
2018-05-09T13:15:02.889Z,4.23
2018-05-09T13:17:28.804Z,4.03
2018-05-09T13:19:55.443Z,4.60
2018-05-09T13:22:22.089Z,3.67
2018-05-09T13:24:48.714Z,4.37
2018-05-09T13:27:15.366Z,4.90
2018-05-09T13:29:41.270Z,5.03
2018-05-09T13:32:07.900Z,4.50
2018-05-09T13:34:34.656Z,4.53
2018-05-09T13:37:00.551Z,4.30
2018-05-09T13:39:28.242Z,4.37
2018-05-09T13:41:54.132Z,4.40
2018-05-09T13:44:20.074Z,4.50
2018-05-09T13:46:47.791Z,5.03
2018-05-09T13:49:15.472Z,4.90
2018-05-09T13:51:43.150Z,4.93
2018-05-09T13:54:10.835Z,4.27
2018-05-09T13:56:38.529Z,5.00
2018-05-09T13:59:06.239Z,4.73
2018-05-09T14:01:33.928Z,6.53
2018-05-09T14:03:59.830Z,5.60
2018-05-09T14:06:26.475Z,4.23
2018-05-09T14:08:53.136Z,4.23
2018-05-09T14:11:20.880Z,5.10
2018-05-09T14:13:48.581Z,4.10
2018-05-09T14:16:16.285Z,4.47
2018-05-09T14:18:42.926Z,3.93
2018-05-09T14:21:09.559Z,4.77
2018-05-09T14:23:36.205Z,5.00
2018-05-09T14:26:02.836Z,4.00
2018-05-09T14:28:29.476Z,4.90
2018-05-09T14:30:56.130Z,4.97
2018-05-09T14:33:23.865Z,4.50
2018-05-09T14:35:51.581Z,5.10
2018-05-09T14:38:17.860Z,4.70
2018-05-09T14:40:45.557Z,5.40
2018-05-09T14:43:13.303Z,6.07
2018-05-09T14:45:39.948Z,4.70
2018-05-09T14:48:05.882Z,4.90
2018-05-09T14:50:31.780Z,4.70
2018-05-09T14:52:58.414Z,5.90
2018-05-09T14:55:25.061Z,5.33
2018-05-09T14:57:51.692Z,5.40
2018-05-09T15:00:18.393Z,5.00
2018-05-09T15:02:44.276Z,4.20
2018-05-09T15:05:10.195Z,4.93
2018-05-09T15:07:36.095Z,5.10
2018-05-09T15:10:02.747Z,4.10
2018-05-09T15:12:28.659Z,5.07
2018-05-09T15:14:54.561Z,4.97
2018-05-09T15:17:21.235Z,4.60
2018-05-09T15:19:47.245Z,4.17
2018-05-09T15:22:13.142Z,4.30
2018-05-09T15:24:39.797Z,4.90
2018-05-09T15:27:06.451Z,4.57
2018-05-09T15:29:32.385Z,4.90
2018-05-09T15:31:58.282Z,5.10
2018-05-09T15:34:24.190Z,4.80
2018-05-09T15:36:50.839Z,5.57
2018-05-09T15:39:16.744Z,5.40
2018-05-09T15:41:43.396Z,4.83
2018-05-09T15:44:09.308Z,6.17
2018-05-09T15:46:35.941Z,5.47
2018-05-09T15:49:02.578Z,5.60
2018-05-09T15:51:29.213Z,5.93
2018-05-09T15:53:55.869Z,5.17
2018-05-09T15:56:21.863Z,6.30
2018-05-09T15:58:48.518Z,5.87
2018-05-09T16:01:15.162Z,5.47
2018-05-09T16:03:41.852Z,6.33
2018-05-09T16:06:07.779Z,5.90
2018-05-09T16:08:33.676Z,5.23
2018-05-09T16:11:06.601Z,6.60
2018-05-09T16:13:32.503Z,6.20
2018-05-09T16:15:58.403Z,6.60
2018-05-09T16:18:24.310Z,6.07
2018-05-09T16:20:50.213Z,6.37
2018-05-09T16:23:16.964Z,7.40
2018-05-09T16:25:42.872Z,6.70
2018-05-09T16:28:08.775Z,6.93
2018-05-09T16:30:35.434Z,11.20
2018-05-09T16:33:01.347Z,7.60
2018-05-09T16:35:27.999Z,6.77
2018-05-09T16:37:53.931Z,5.93
2018-05-09T16:40:19.863Z,6.80
2018-05-09T16:42:45.776Z,7.63
2018-05-09T16:45:11.748Z,8.50
2018-05-09T16:47:37.577Z,7.90
2018-05-09T16:50:04.233Z,7.80
2018-05-09T16:52:30.155Z,8.40
2018-05-09T16:54:56.092Z,6.90
2018-05-09T16:57:21.982Z,6.80
2018-05-09T16:59:48.606Z,6.90
2018-05-09T17:02:14.509Z,6.83
2018-05-09T17:04:40.423Z,6.73
2018-05-09T17:07:06.321Z,7.20
2018-05-09T17:09:32.221Z,7.07
2018-05-09T17:11:58.112Z,7.53
2018-05-09T17:14:24.769Z,7.60
2018-05-09T17:16:50.676Z,7.73
2018-05-09T17:19:16.624Z,7.30
2018-05-09T17:21:56.682Z,8.30
2018-05-09T17:24:22.875Z,8.77
2018-05-09T17:26:49.530Z,8.00
2018-05-09T17:29:15.417Z,7.13
2018-05-09T17:31:41.324Z,6.97
2018-05-09T17:34:07.314Z,7.63
2018-05-09T17:36:33.225Z,7.10
2018-05-09T17:38:59.151Z,7.80
2018-05-09T17:41:25.068Z,8.43
2018-05-09T17:43:50.958Z,7.30
2018-05-09T17:46:17.605Z,7.07
2018-05-09T17:48:44.255Z,5.50
2018-05-09T17:51:10.189Z,5.23
2018-05-09T17:53:36.124Z,6.20
2018-05-09T17:56:02.051Z,6.33
2018-05-09T17:58:27.998Z,5.87
2018-05-09T18:00:53.945Z,5.93
2018-05-09T18:03:20.596Z,5.33
2018-05-09T18:05:46.514Z,6.00
2018-05-09T18:08:12.421Z,6.60
2018-05-09T18:10:39.161Z,7.53
2018-05-09T18:13:05.885Z,7.33
2018-05-09T18:15:31.839Z,7.47
2018-05-09T18:17:59.995Z,10.63
2018-05-09T18:20:27.017Z,7.70
2018-05-09T18:22:52.960Z,7.17
2018-05-09T18:25:19.610Z,8.70
2018-05-09T18:27:46.264Z,9.37
2018-05-09T18:30:12.188Z,10.20
2018-05-09T18:32:38.100Z,8.60
2018-05-09T18:35:04.020Z,15.57
2018-05-09T18:37:30.087Z,12.67
2018-05-09T18:39:56.115Z,18.00
2018-05-09T18:42:21.935Z,22.23
2018-05-09T18:44:47.955Z,18.67
2018-05-09T18:47:13.851Z,15.20
2018-05-09T18:49:39.766Z,12.60
2018-05-09T18:52:05.884Z,20.30
2018-05-09T18:54:31.800Z,16.83
2018-05-09T18:56:57.716Z,16.67
2018-05-09T18:59:23.617Z,13.27
2018-05-09T19:01:50.345Z,15.10
2018-05-09T19:04:16.280Z,17.67
2018-05-09T19:06:42.976Z,23.30
2018-05-09T19:09:08.926Z,25.37
2018-05-09T19:11:34.848Z,18.57
2018-05-09T19:14:00.795Z,20.07
2018-05-09T19:16:26.855Z,23.90
2018-05-09T19:18:52.685Z,22.73
2018-05-09T19:21:18.595Z,19.50
2018-05-09T19:23:44.544Z,21.10
2018-05-09T19:26:10.470Z,28.50
2018-05-09T19:28:36.428Z,20.20
2018-05-09T19:31:02.260Z,16.27
2018-05-09T19:33:28.165Z,15.90
2018-05-09T19:35:54.080Z,16.33
2018-05-09T19:38:20.725Z,12.90
2018-05-09T19:40:46.634Z,13.00
2018-05-09T19:43:13.298Z,21.50
2018-05-09T19:45:39.208Z,20.10
2018-05-09T19:48:05.100Z,20.93
2018-05-09T19:50:31.783Z,14.10
2018-05-09T19:52:57.687Z,14.90
2018-05-09T19:55:23.613Z,15.00
2018-05-09T19:57:49.528Z,14.90
2018-05-09T20:00:15.466Z,14.23
2018-05-09T20:02:41.387Z,15.63
2018-05-09T20:05:07.297Z,15.30
2018-05-09T20:07:33.239Z,20.73
2018-05-09T20:09:59.146Z,17.20
2018-05-09T20:12:25.044Z,18.00
2018-05-09T20:14:50.932Z,30.20
2018-05-09T20:17:16.842Z,31.23
2018-05-09T20:19:42.784Z,23.10
2018-05-09T20:22:09.426Z,21.43
2018-05-09T20:24:36.075Z,27.93
2018-05-09T20:27:02.716Z,31.30
2018-05-09T20:29:28.634Z,41.23
2018-05-09T20:32:06.993Z,25.03
2018-05-09T20:34:32.913Z,19.30
2018-05-09T20:36:58.833Z,14.67
2018-05-09T20:39:24.747Z,14.70
2018-05-09T20:41:50.646Z,13.40
2018-05-09T20:44:17.055Z,13.50
2018-05-09T20:46:43.709Z,14.23
2018-05-09T20:49:09.620Z,11.80
2018-05-09T20:51:48.609Z,12.60
2018-05-09T20:54:14.532Z,12.93
2018-05-09T20:56:40.433Z,12.63
2018-05-09T20:59:06.351Z,12.70
2018-05-09T21:01:44.695Z,13.10
2018-05-09T21:04:11.385Z,14.50
2018-05-09T21:06:37.307Z,10.70
2018-05-09T21:09:04.229Z,9.43
2018-05-09T21:11:30.100Z,10.40
2018-05-09T21:13:56.006Z,9.80
2018-05-09T21:16:21.943Z,10.43
2018-05-09T21:18:47.855Z,9.50
2018-05-09T21:21:13.794Z,10.17
2018-05-09T21:23:39.685Z,9.87
2018-05-09T21:26:05.649Z,9.63
2018-05-09T21:28:31.607Z,9.47
2018-05-09T21:30:57.472Z,9.63
2018-05-09T21:33:23.393Z,9.43
2018-05-09T21:35:49.273Z,10.03
2018-05-09T21:38:15.157Z,9.47
2018-05-09T21:40:41.835Z,10.03
2018-05-09T21:43:07.736Z,8.87
2018-05-09T21:45:33.649Z,13.43
2018-05-09T21:48:00.282Z,16.60
2018-05-09T21:50:26.925Z,17.50
2018-05-09T21:52:53.617Z,11.80
2018-05-09T21:55:19.535Z,15.93
2018-05-09T21:57:45.463Z,15.63
2018-05-09T22:00:11.431Z,14.50
2018-05-09T22:02:37.333Z,13.40
2018-05-09T22:05:03.984Z,12.87
2018-05-09T22:07:30.635Z,11.80
2018-05-09T22:09:56.556Z,12.10
2018-05-09T22:12:22.481Z,12.87
2018-05-09T22:14:48.494Z,13.00
2018-05-09T22:17:14.392Z,12.53
2018-05-09T22:19:41.036Z,13.17
2018-05-09T22:22:07.701Z,14.33
2018-05-09T22:24:33.619Z,18.90
2018-05-09T22:27:00.107Z,20.60
2018-05-09T22:29:26.042Z,20.87
2018-05-09T22:31:52.737Z,14.87
2018-05-09T22:34:18.640Z,24.10
2018-05-09T22:36:44.533Z,21.53
2018-05-09T22:39:11.148Z,15.80
2018-05-09T22:41:37.071Z,16.10
2018-05-09T22:44:02.972Z,17.90
2018-05-09T22:46:28.868Z,14.93
2018-05-09T22:48:56.023Z,17.53
2018-05-09T22:51:21.939Z,16.27
2018-05-09T22:53:47.842Z,16.93
2018-05-09T22:56:13.743Z,14.20
2018-05-09T22:58:40.394Z,14.37
2018-05-09T23:01:06.289Z,15.07
2018-05-09T23:03:32.186Z,16.20
2018-05-09T23:05:58.135Z,13.77
2018-05-09T23:08:24.784Z,14.30
2018-05-09T23:10:51.442Z,15.00
2018-05-09T23:13:17.387Z,15.57
2018-05-09T23:15:43.293Z,17.50
2018-05-09T23:18:09.208Z,14.13
2018-05-09T23:20:35.101Z,14.33
2018-05-09T23:23:01.762Z,16.80
2018-05-09T23:25:27.658Z,14.47
2018-05-09T23:27:54.312Z,14.60
2018-05-09T23:30:20.226Z,15.40
2018-05-09T23:32:46.905Z,14.33
2018-05-09T23:35:12.820Z,14.77
2018-05-09T23:37:38.699Z,15.30
2018-05-09T23:40:05.349Z,14.60
2018-05-09T23:42:31.263Z,14.77
2018-05-09T23:44:57.185Z,15.23
2018-05-09T23:47:23.101Z,16.10
2018-05-09T23:49:49.730Z,16.17
2018-05-09T23:52:16.541Z,15.53
2018-05-09T23:54:43.292Z,15.60
2018-05-09T23:57:09.222Z,16.57
2018-05-09T23:59:35.148Z,16.53
